Time;durP1;ratioP1;P1;durP2;ratioP2;P2;SDS_P1;SDS_P2;PMS_P1;PMS_P2;Temp;Humidity;BMP_temperature;BMP_pressure;BME280_temperature;BME280_humidity;BME280_pressure;Samples;Min_cycle;Max_cycle;Signal;HPM_P1;HPM_P2
2024/01/13 00:00:41;;;;;;;;;;;;;;;1.25;85.61;101790.28;4194383;28;20023;-74
2024/01/13 00:02:43;;;;;;;;;;;;;;;1.25;85.57;101784.97;4195421;28;20829;-74
2024/01/13 00:04:45;;;;;;;;;;;;;;;1.24;85.40;101778.78;4195192;28;19956;-74
2024/01/13 00:06:49;;;;;;;;;;;;;;;1.27;85.21;101780.44;4193613;28;20015;-74
2024/01/13 00:08:53;;;;;;;;;;;;;;;1.28;85.17;101784.78;4194226;28;19971;-73
2024/01/13 00:10:57;;;;;;;;;;;;;;;1.28;85.40;101778.63;4193829;28;19978;-73
2024/01/13 00:13:01;;;;;;;;;;;;;;;1.29;85.22;101778.53;4194343;28;19935;-73
2024/01/13 00:15:04;;;;;;;;;;;;;;;1.29;85.16;101775.88;4201711;28;20433;-74
2024/01/13 00:17:06;;;;;;;;;;;;;;;1.31;85.37;101781.09;4194945;28;20437;-74
2024/01/13 00:19:08;;;;;;;;;;;;;;;1.30;85.26;101776.72;4194648;28;19967;-73
2024/01/13 00:21:10;;;;;;;;;;;;;;;1.31;85.25;101773.09;4195098;28;20020;-74
2024/01/13 00:23:12;;;;;;;;;;;;;;;1.30;85.34;101780.25;4194419;28;20023;-74
2024/01/13 00:25:17;;;;;;;;;;;;;;;1.31;85.13;101771.28;4191961;28;19931;-74
2024/01/13 00:27:20;;;;;;;;;;;;;;;1.31;85.33;101770.44;4194144;28;20479;-74
2024/01/13 00:29:22;;;;;;;;;;;;;;;1.30;85.72;101782.03;4194464;28;19981;-74
2024/01/13 00:31:24;;;;;;;;;;;;;;;1.32;85.48;101773.00;4192519;28;20012;-74
2024/01/13 00:33:26;;;;;;;;;;;;;;;1.35;85.26;101774.63;4194298;28;20011;-74
2024/01/13 00:35:28;;;;;;;;;;;;;;;1.36;85.36;101771.03;4194880;28;20454;-74
2024/01/13 00:37:33;;;;;;;;;;;;;;;1.38;85.19;101772.66;4194951;28;20011;-74
2024/01/13 00:39:34;;;;;;;;;;;;;;;1.37;85.25;101770.09;4194720;28;20031;-74
2024/01/13 00:41:37;;;;;;;;;;;;;;;1.35;85.21;101770.16;4193230;28;19986;-74
2024/01/13 00:43:39;;;;;;;;;;;;;;;1.38;85.29;101770.00;4194554;28;20011;-74
2024/01/13 00:45:41;;;;;;;;;;;;;;;1.39;85.57;101773.50;4197706;28;20485;-74
2024/01/13 00:47:45;;;;;;;;;;;;;;;1.40;85.58;101769.91;4198594;28;20020;-74
2024/01/13 00:49:47;;;;;;;;;;;;;;;1.39;85.52;101768.19;4204432;28;20023;-74
2024/01/13 00:51:49;;;;;;;;;;;;;;;1.37;85.50;101767.41;4195745;28;19924;-74
2024/01/13 00:53:51;;;;;;;;;;;;;;;1.38;85.24;101762.00;4197968;28;20031;-73
2024/01/13 00:55:52;;;;;;;;;;;;;;;1.40;85.47;101764.56;4198234;28;20452;-74
2024/01/13 00:57:55;;;;;;;;;;;;;;;1.38;85.41;101770.00;4197644;28;20045;-74
2024/01/13 00:59:56;;;;;;;;;;;;;;;1.39;85.26;101760.19;4197762;28;20007;-74
2024/01/13 01:01:58;;;;;;;;;;;;;;;1.41;85.43;101760.94;4197549;28;20378;-74
2024/01/13 01:04:00;;;;;;;;;;;;;;;1.43;85.25;101756.41;4198773;28;20011;-74
2024/01/13 01:06:01;;;;;;;;;;;;;;;1.44;85.44;101758.97;4198085;28;20402;-74
2024/01/13 01:08:04;;;;;;;;;;;;;;;1.47;85.36;101747.25;4198815;28;20046;-74
2024/01/13 01:10:06;;;;;;;;;;;;;;;1.48;85.45;101756.13;4196514;28;20024;-74
2024/01/13 01:12:08;;;;;;;;;;;;;;;1.44;85.60;101743.00;4197402;28;19924;-74
2024/01/13 01:14:11;;;;;;;;;;;;;;;1.45;85.65;101733.19;4196986;28;20032;-74
2024/01/13 01:16:13;;;;;;;;;;;;;;;1.44;85.37;101740.34;4197180;28;20023;-74
2024/01/13 01:18:15;;;;;;;;;;;;;;;1.45;85.47;101743.84;4197367;28;20008;-74
2024/01/13 01:20:17;;;;;;;;;;;;;;;1.44;85.47;101737.69;4197252;28;20609;-74
2024/01/13 01:22:19;;;;;;;;;;;;;;;1.44;85.17;101721.69;4196904;28;20395;-74
2024/01/13 01:24:21;;;;;;;;;;;;;;;1.46;85.60;101739.38;4197855;28;20023;-73
2024/01/13 01:26:23;;;;;;;;;;;;;;;1.44;85.54;101729.69;4196872;28;19975;-73
2024/01/13 01:28:24;;;;;;;;;;;;;;;1.47;85.31;101720.63;4196147;28;20018;-74
2024/01/13 01:30:28;;;;;;;;;;;;;;;1.48;85.61;101738.34;4211178;28;19931;-74
2024/01/13 01:32:30;;;;;;;;;;;;;;;1.48;85.53;101726.84;4196138;28;19935;-74
2024/01/13 01:34:33;;;;;;;;;;;;;;;1.48;85.40;101725.03;4195417;28;20007;-74
2024/01/13 01:36:35;;;;;;;;;;;;;;;1.49;85.31;101720.53;4196118;28;20441;-74
2024/01/13 01:38:36;;;;;;;;;;;;;;;1.47;85.50;101717.97;4195917;28;20016;-74
2024/01/13 01:40:38;;;;;;;;;;;;;;;1.48;85.43;101724.19;4194565;28;19933;-73
2024/01/13 01:42:39;;;;;;;;;;;;;;;1.48;85.23;101717.03;4196711;28;20435;-74
2024/01/13 01:44:41;;;;;;;;;;;;;;;1.49;85.19;101712.56;4197088;28;20010;-73
2024/01/13 01:46:44;;;;;;;;;;;;;;;1.49;85.37;101712.56;4197194;28;20031;-74
2024/01/13 01:48:45;;;;;;;;;;;;;;;1.49;84.94;101708.13;4196846;28;20015;-74
2024/01/13 01:50:47;;;;;;;;;;;;;;;1.52;85.30;101707.03;4196780;28;20007;-74
2024/01/13 01:52:49;;;;;;;;;;;;;;;1.51;85.57;101703.53;4195168;28;20377;-74
2024/01/13 01:54:51;;;;;;;;;;;;;;;1.52;85.47;101697.28;4195442;28;20027;-74
2024/01/13 01:56:53;;;;;;;;;;;;;;;1.53;85.39;101695.47;4196291;28;20052;-74
2024/01/13 01:58:55;;;;;;;;;;;;;;;1.54;85.47;101690.03;4196651;28;20019;-74
2024/01/13 02:00:57;;;;;;;;;;;;;;;1.53;85.37;101685.66;4195609;28;20022;-74
2024/01/13 02:03:00;;;;;;;;;;;;;;;1.54;85.48;101684.72;4195439;28;20012;-74
2024/01/13 02:05:02;;;;;;;;;;;;;;;1.54;85.33;101690.03;4195697;28;20019;-73
2024/01/13 02:07:05;;;;;;;;;;;;;;;1.56;85.62;101684.63;4195898;28;20035;-74
2024/01/13 02:09:07;;;;;;;;;;;;;;;1.55;85.53;101683.78;4196350;28;20030;-74
2024/01/13 02:11:08;;;;;;;;;;;;;;;1.57;85.48;101683.69;4194964;28;20011;-73
2024/01/13 02:13:10;;;;;;;;;;;;;;;1.59;85.70;101679.94;4196653;28;19931;-74
2024/01/13 02:15:12;;;;;;;;;;;;;;;1.58;85.70;101672.06;4196570;28;20019;-73
2024/01/13 02:17:14;;;;;;;;;;;;;;;1.58;85.72;101672.06;4196766;28;20020;-74
2024/01/13 02:19:17;;;;;;;;;;;;;;;1.61;85.83;101682.50;4197483;28;20011;-74
2024/01/13 02:21:19;;;;;;;;;;;;;;;1.60;85.95;101668.34;4196688;28;20019;-74
2024/01/13 02:23:22;;;;;;;;;;;;;;;1.62;86.23;101666.44;4194744;28;20027;-74
2024/01/13 02:25:24;;;;;;;;;;;;;;;1.60;86.20;101663.03;4196949;28;20052;-74
2024/01/13 02:27:26;;;;;;;;;;;;;;;1.59;85.93;101660.47;4196674;28;20375;-74
2024/01/13 02:29:28;;;;;;;;;;;;;;;1.60;85.83;101663.03;4197019;28;20019;-74
2024/01/13 02:31:30;;;;;;;;;;;;;;;1.60;85.70;101652.38;4195550;28;20015;-74
2024/01/13 02:33:31;;;;;;;;;;;;;;;1.60;85.72;101655.03;4196191;28;20390;-74
2024/01/13 02:35:33;;;;;;;;;;;;;;;1.61;85.72;101639.91;4195907;28;19939;-74
2024/01/13 02:37:35;;;;;;;;;;;;;;;1.63;86.06;101643.34;4197029;28;20449;-74
2024/01/13 02:39:39;;;;;;;;;;;;;;;1.62;85.72;101644.28;4196336;28;20030;-74
2024/01/13 02:41:42;;;;;;;;;;;;;;;1.65;85.92;101638.78;4195264;28;20023;-74
2024/01/13 02:43:43;;;;;;;;;;;;;;;1.66;85.85;101631.63;4211001;28;19963;-74
2024/01/13 02:45:45;;;;;;;;;;;;;;;1.65;85.93;101633.44;4196958;28;19970;-74
2024/01/13 02:47:48;;;;;;;;;;;;;;;1.64;86.02;101633.53;4194750;28;20015;-74
2024/01/13 02:49:50;;;;;;;;;;;;;;;1.65;86.04;101630.78;4194658;28;20023;-74
2024/01/13 02:51:52;;;;;;;;;;;;;;;1.66;86.19;101613.84;4196336;28;20392;-74
2024/01/13 02:53:55;;;;;;;;;;;;;;;1.66;86.10;101608.50;4195775;28;19929;-74
2024/01/13 02:55:58;;;;;;;;;;;;;;;1.66;85.94;101611.16;4193991;28;20011;-74
2024/01/13 02:58:00;;;;;;;;;;;;;;;1.66;86.11;101603.19;4196658;28;20359;-74
2024/01/13 03:00:04;;;;;;;;;;;;;;;1.65;85.98;101603.31;4194168;28;20020;-74
2024/01/13 03:02:06;;;;;;;;;;;;;;;1.66;86.02;101605.00;4195239;28;20485;-74
2024/01/13 03:04:08;;;;;;;;;;;;;;;1.64;85.86;101599.78;4196166;28;20015;-74
2024/01/13 03:06:09;;;;;;;;;;;;;;;1.66;86.06;101597.00;4196405;28;19963;-74
2024/01/13 03:08:11;;;;;;;;;;;;;;;1.68;85.92;101585.31;4195554;28;20023;-74
2024/01/13 03:10:16;;;;;;;;;;;;;;;1.66;86.03;101586.34;4193254;28;20031;-74
2024/01/13 03:12:20;;;;;;;;;;;;;;;1.66;86.20;101586.34;4203304;28;19939;-74
2024/01/13 03:14:22;;;;;;;;;;;;;;;1.69;86.11;101575.50;4203149;28;20489;-74
2024/01/13 03:16:23;;;;;;;;;;;;;;;1.69;86.38;101572.84;4196579;28;19991;-74
2024/01/13 03:18:26;;;;;;;;;;;;;;;1.67;86.21;101583.59;4195895;28;19986;-74
2024/01/13 03:20:28;;;;;;;;;;;;;;;1.67;86.28;101577.44;4196425;28;20027;-74
2024/01/13 03:22:30;;;;;;;;;;;;;;;1.67;86.42;101569.44;4195493;28;20019;-74
2024/01/13 03:24:32;;;;;;;;;;;;;;;1.67;86.52;101572.94;4194954;28;20023;-74
2024/01/13 03:26:34;;;;;;;;;;;;;;;1.66;86.62;101573.03;4194883;28;20022;-74
2024/01/13 03:28:36;;;;;;;;;;;;;;;1.66;86.52;101578.38;4195653;28;20015;-74
2024/01/13 03:30:38;;;;;;;;;;;;;;;1.67;86.77;101577.44;4195800;28;19959;-74
2024/01/13 03:32:41;;;;;;;;;;;;;;;1.69;86.83;101579.00;4196289;28;20686;-73
2024/01/13 03:34:43;;;;;;;;;;;;;;;1.69;86.44;101570.19;4195457;28;20530;-74
2024/01/13 03:36:45;;;;;;;;;;;;;;;1.68;87.02;101563.13;4194303;28;19973;-74
2024/01/13 03:38:47;;;;;;;;;;;;;;;1.68;87.05;101560.47;4194533;28;20019;-74
2024/01/13 03:40:49;;;;;;;;;;;;;;;1.70;86.88;101553.25;4194915;28;20020;-74
2024/01/13 03:42:51;;;;;;;;;;;;;;;1.72;86.99;101562.84;4191932;28;20028;-74
2024/01/13 03:44:56;;;;;;;;;;;;;;;1.73;87.12;101553.06;4195461;28;20019;-74
2024/01/13 03:46:58;;;;;;;;;;;;;;;1.73;87.31;101556.56;4193750;28;19924;-73
2024/01/13 03:49:00;;;;;;;;;;;;;;;1.74;87.38;101554.75;4190341;28;20012;-73
2024/01/13 03:51:02;;;;;;;;;;;;;;;1.71;87.39;101547.84;4192418;28;20011;-74
2024/01/13 03:53:05;;;;;;;;;;;;;;;1.72;87.43;101549.53;4194244;28;19967;-73
2024/01/13 03:55:09;;;;;;;;;;;;;;;1.70;87.39;101548.78;4192981;28;20402;-74
2024/01/13 03:57:11;;;;;;;;;;;;;;;1.69;87.61;101541.72;4197463;28;20012;-74
2024/01/13 03:59:15;;;;;;;;;;;;;;;1.67;87.45;101529.50;4201533;28;20362;-73
2024/01/13 04:01:18;;;;;;;;;;;;;;;1.68;87.65;101532.06;4193796;28;20008;-73
2024/01/13 04:03:19;;;;;;;;;;;;;;;1.67;87.55;101527.69;4192300;28;19956;-74
2024/01/13 04:05:21;;;;;;;;;;;;;;;1.71;87.80;101520.31;4195062;28;20043;-73
2024/01/13 04:07:23;;;;;;;;;;;;;;;1.68;87.78;101525.84;4193799;28;20027;-73
2024/01/13 04:09:25;;;;;;;;;;;;;;;1.65;88.24;101513.63;4192075;28;20478;-75
2024/01/13 04:11:27;;;;;;;;;;;;;;;1.66;87.91;101511.78;4190042;28;20015;-74
2024/01/13 04:13:28;;;;;;;;;;;;;;;1.67;87.91;101518.84;4192985;28;20026;-73
2024/01/13 04:15:32;;;;;;;;;;;;;;;1.67;87.93;101526.81;4192336;28;20023;-73
2024/01/13 04:17:36;;;;;;;;;;;;;;;1.68;87.96;101531.19;4194644;28;19971;-74
2024/01/13 04:19:37;;;;;;;;;;;;;;;1.68;87.70;101529.38;4196277;28;20011;-74
2024/01/13 04:21:40;;;;;;;;;;;;;;;1.65;87.66;101532.25;4198508;28;19955;-75
2024/01/13 04:23:42;;;;;;;;;;;;;;;1.69;87.89;101532.91;4197721;28;19997;-74
2024/01/13 04:25:44;;;;;;;;;;;;;;;1.69;87.48;101525.75;4193938;28;20015;-74
2024/01/13 04:27:48;;;;;;;;;;;;;;;1.68;87.60;101528.50;4199094;28;20035;-74
2024/01/13 04:29:50;;;;;;;;;;;;;;;1.69;87.49;101519.59;4198749;28;19964;-74
2024/01/13 04:31:52;;;;;;;;;;;;;;;1.69;87.46;101519.59;4198144;28;19925;-74
2024/01/13 04:33:55;;;;;;;;;;;;;;;1.69;87.79;101507.13;4196962;28;19967;-74
2024/01/13 04:35:57;;;;;;;;;;;;;;;1.68;87.82;101505.44;4200017;28;20470;-74
2024/01/13 04:37:59;;;;;;;;;;;;;;;1.67;87.60;101514.34;4197921;28;20011;-75
2024/01/13 04:40:04;;;;;;;;;;;;;;;1.67;87.62;101511.69;4197113;28;20019;-75
2024/01/13 04:42:06;;;;;;;;;;;;;;;1.68;87.83;101501.88;4188906;28;19964;-74
2024/01/13 04:44:08;;;;;;;;;;;;;;;1.69;87.52;101503.59;4193301;28;20011;-73
2024/01/13 04:46:10;;;;;;;;;;;;;;;1.67;87.53;101509.03;4194734;28;20024;-73
2024/01/13 04:48:13;;;;;;;;;;;;;;;1.67;87.53;101510.84;4197445;28;20039;-74
2024/01/13 04:50:15;;;;;;;;;;;;;;;1.68;87.59;101510.75;4198879;28;20003;-73
2024/01/13 04:52:18;;;;;;;;;;;;;;;1.69;87.72;101511.59;4182139;28;20007;-73
2024/01/13 04:54:20;;;;;;;;;;;;;;;1.68;87.65;101500.09;4187951;28;20023;-74
2024/01/13 04:56:22;;;;;;;;;;;;;;;1.67;87.70;101497.53;4194275;28;19925;-74
2024/01/13 04:58:24;;;;;;;;;;;;;;;1.68;87.84;101488.56;4198088;28;20031;-74
2024/01/13 05:00:27;;;;;;;;;;;;;;;1.66;87.76;101487.81;4194999;28;19956;-74
2024/01/13 05:02:30;;;;;;;;;;;;;;;1.66;87.79;101487.81;4191085;28;20434;-74
2024/01/13 05:04:32;;;;;;;;;;;;;;;1.67;87.52;101489.53;4195632;28;20438;-74
2024/01/13 05:06:36;;;;;;;;;;;;;;;1.69;87.68;101484.97;4198301;28;20429;-73
2024/01/13 05:08:38;;;;;;;;;;;;;;;1.68;87.49;101480.59;4194243;28;20019;-74
2024/01/13 05:10:40;;;;;;;;;;;;;;;1.68;87.66;101476.13;4188437;28;20027;-74
2024/01/13 05:12:42;;;;;;;;;;;;;;;1.68;87.47;101485.91;4184076;28;20361;-74
2024/01/13 05:14:44;;;;;;;;;;;;;;;1.67;87.73;101481.56;4193067;28;20011;-74
2024/01/13 05:16:46;;;;;;;;;;;;;;;1.67;87.75;101476.22;4210142;28;20607;-73
2024/01/13 05:18:48;;;;;;;;;;;;;;;1.66;87.57;101483.34;4192021;28;20047;-74
2024/01/13 05:20:50;;;;;;;;;;;;;;;1.66;87.49;101483.34;4197096;28;20020;-73
2024/01/13 05:22:53;;;;;;;;;;;;;;;1.68;87.71;101484.13;4196342;28;20461;-74
2024/01/13 05:24:55;;;;;;;;;;;;;;;1.68;87.76;101478.78;4198390;28;20003;-73
2024/01/13 05:26:57;;;;;;;;;;;;;;;1.69;87.72;101471.66;4194929;28;19968;-74
2024/01/13 05:28:59;;;;;;;;;;;;;;;1.66;87.66;101475.34;4199019;28;20026;-73
2024/01/13 05:31:01;;;;;;;;;;;;;;;1.66;88.28;101480.69;4198764;28;20019;-74
2024/01/13 05:33:03;;;;;;;;;;;;;;;1.66;88.27;101474.50;4188377;28;19975;-74
2024/01/13 05:35:05;;;;;;;;;;;;;;;1.67;88.28;101471.75;4194987;28;19964;-74
2024/01/13 05:37:07;;;;;;;;;;;;;;;1.67;88.21;101466.44;4189498;28;20391;-75
2024/01/13 05:39:10;;;;;;;;;;;;;;;1.69;88.18;101466.31;4199177;28;19952;-74
2024/01/13 05:41:12;;;;;;;;;;;;;;;1.68;87.97;101465.47;4184831;28;20287;-73
2024/01/13 05:43:13;;;;;;;;;;;;;;;1.68;88.13;101456.63;4195901;28;20016;-73
2024/01/13 05:45:15;;;;;;;;;;;;;;;1.69;88.21;101459.19;4193391;28;20387;-74
2024/01/13 05:47:16;;;;;;;;;;;;;;;1.69;88.16;101464.50;4194953;28;20170;-74
2024/01/13 05:49:18;;;;;;;;;;;;;;;1.71;88.26;101462.63;4195086;28;20380;-74
2024/01/13 05:51:20;;;;;;;;;;;;;;;1.70;88.08;101460.06;4195969;28;20360;-73
2024/01/13 05:53:22;;;;;;;;;;;;;;;1.69;88.41;101466.31;4198013;28;20087;-73
2024/01/13 05:55:26;;;;;;;;;;;;;;;1.67;88.08;101458.44;4195418;28;20028;-74
2024/01/13 05:57:28;;;;;;;;;;;;;;;1.70;88.34;101462.72;4196347;28;20322;-74
2024/01/13 05:59:30;;;;;;;;;;;;;;;1.73;87.88;101459.84;4197069;28;20098;-74
2024/01/13 06:01:31;;;;;;;;;;;;;;;1.73;88.14;101455.38;4194875;28;20023;-73
2024/01/13 06:03:33;;;;;;;;;;;;;;;1.70;88.13;101452.06;4194324;28;20027;-73
2024/01/13 06:05:37;;;;;;;;;;;;;;;1.73;88.10;101458.03;4193134;28;20028;-73
2024/01/13 06:07:40;;;;;;;;;;;;;;;1.72;88.22;101458.97;4197080;28;20011;-73
2024/01/13 06:09:41;;;;;;;;;;;;;;;1.72;88.18;101450.97;4208193;28;20205;-73
2024/01/13 06:11:45;;;;;;;;;;;;;;;1.73;88.12;101436.72;4204972;28;20027;-73
2024/01/13 06:13:46;;;;;;;;;;;;;;;1.74;88.55;101446.44;4194411;28;20027;-74
2024/01/13 06:15:48;;;;;;;;;;;;;;;1.73;88.34;101441.22;4192733;28;20043;-74
2024/01/13 06:17:49;;;;;;;;;;;;;;;1.72;88.37;101432.34;4194695;28;20391;-74
2024/01/13 06:19:51;;;;;;;;;;;;;;;1.72;88.50;101436.81;4195143;28;19944;-73
2024/01/13 06:21:53;;;;;;;;;;;;;;;1.73;88.45;101431.41;4193134;28;20042;-73
2024/01/13 06:23:56;;;;;;;;;;;;;;;1.74;88.44;101429.56;4193109;28;20011;-73
2024/01/13 06:25:59;;;;;;;;;;;;;;;1.76;88.40;101436.53;4195989;28;20028;-73
2024/01/13 06:28:02;;;;;;;;;;;;;;;1.75;88.44;101417.97;4192721;28;20422;-74
2024/01/13 06:30:05;;;;;;;;;;;;;;;1.73;88.37;101422.56;4195591;28;20458;-74
2024/01/13 06:32:06;;;;;;;;;;;;;;;1.74;88.37;101414.47;4194262;28;20021;-74
2024/01/13 06:34:08;;;;;;;;;;;;;;;1.75;88.21;101417.97;4190528;28;19937;-73
2024/01/13 06:36:10;;;;;;;;;;;;;;;1.74;88.21;101418.94;4187796;28;20023;-74
2024/01/13 06:38:12;;;;;;;;;;;;;;;1.73;88.40;101412.75;4184503;28;19925;-73
2024/01/13 06:40:15;;;;;;;;;;;;;;;1.74;88.39;101402.94;4192625;28;19932;-73
2024/01/13 06:42:16;;;;;;;;;;;;;;;1.76;88.35;101414.38;4191429;28;19999;-73
2024/01/13 06:44:20;;;;;;;;;;;;;;;1.80;88.19;101400.75;4193764;28;20463;-73
2024/01/13 06:46:22;;;;;;;;;;;;;;;1.80;88.29;101402.53;4193688;28;20364;-74
2024/01/13 06:48:24;;;;;;;;;;;;;;;1.80;88.56;101397.19;4201841;28;20087;-73
2024/01/13 06:50:26;;;;;;;;;;;;;;;1.80;88.52;101391.88;4192816;28;20339;-74
2024/01/13 06:52:28;;;;;;;;;;;;;;;1.80;88.33;101398.06;4193552;28;20019;-74
2024/01/13 06:54:30;;;;;;;;;;;;;;;1.79;88.78;101398.19;4195768;28;20015;-73
2024/01/13 06:56:32;;;;;;;;;;;;;;;1.79;88.53;101401.69;4192803;28;20011;-73
2024/01/13 06:58:33;;;;;;;;;;;;;;;1.80;88.50;101397.19;4193642;28;19932;-73
2024/01/13 07:00:37;;;;;;;;;;;;;;;1.80;88.46;101398.06;4191387;28;19924;-73
2024/01/13 07:02:40;;;;;;;;;;;;;;;1.83;88.71;101396.16;4193579;28;20031;-73
2024/01/13 07:04:41;;;;;;;;;;;;;;;1.83;88.67;101394.34;4185741;28;20024;-74
2024/01/13 07:06:43;;;;;;;;;;;;;;;1.82;88.48;101382.00;4192716;28;20019;-74
2024/01/13 07:08:45;;;;;;;;;;;;;;;1.82;88.59;101381.13;4189820;28;20019;-74
2024/01/13 07:10:48;;;;;;;;;;;;;;;1.83;88.66;101365.03;4193943;28;20015;-74
2024/01/13 07:12:50;;;;;;;;;;;;;;;1.82;88.83;101374.00;4192979;28;19964;-74
2024/01/13 07:14:52;;;;;;;;;;;;;;;1.84;88.73;101366.75;4191479;28;20445;-74
2024/01/13 07:16:55;;;;;;;;;;;;;;;1.86;88.75;101362.16;4187517;28;20011;-74
2024/01/13 07:18:57;;;;;;;;;;;;;;;1.84;89.21;101368.56;4197166;28;19924;-74
2024/01/13 07:20:59;;;;;;;;;;;;;;;1.85;89.02;101367.59;4191113;28;20505;-73
2024/01/13 07:23:01;;;;;;;;;;;;;;;1.84;89.18;101361.41;4192360;28;20015;-74
2024/01/13 07:25:03;;;;;;;;;;;;;;;1.84;89.06;101358.75;4188874;28;20000;-74
2024/01/13 07:27:05;;;;;;;;;;;;;;;1.85;89.04;101354.28;4190022;28;20031;-73
2024/01/13 07:29:07;;;;;;;;;;;;;;;1.83;89.31;101357.03;4192050;28;20368;-73
2024/01/13 07:31:09;;;;;;;;;;;;;;;1.83;89.22;101350.88;4195476;28;20019;-74
2024/01/13 07:33:15;;;;;;;;;;;;;;;1.82;89.30;101352.69;4192957;28;20446;-74
2024/01/13 07:35:17;;;;;;;;;;;;;;;1.83;89.64;101349.06;4192663;28;20031;-74
2024/01/13 07:37:18;;;;;;;;;;;;;;;1.81;89.52;101340.31;4194981;28;20019;-73
2024/01/13 07:39:20;;;;;;;;;;;;;;;1.79;89.61;101353.75;4193684;28;19990;-73
2024/01/13 07:41:22;;;;;;;;;;;;;;;1.79;89.43;101348.41;4194013;28;20043;-74
2024/01/13 07:43:24;;;;;;;;;;;;;;;1.78;89.75;101340.53;4192809;28;20027;-74
2024/01/13 07:45:27;;;;;;;;;;;;;;;1.80;89.53;101339.47;4203680;28;19966;-73
2024/01/13 07:47:29;;;;;;;;;;;;;;;1.80;89.67;101331.50;4196495;28;20035;-73
2024/01/13 07:49:32;;;;;;;;;;;;;;;1.79;89.77;101340.44;4191770;28;20015;-73
2024/01/13 07:51:34;;;;;;;;;;;;;;;1.80;89.73;101342.16;4191957;28;20019;-73
2024/01/13 07:53:36;;;;;;;;;;;;;;;1.80;89.48;101330.63;4193070;28;20011;-73
2024/01/13 07:55:38;;;;;;;;;;;;;;;1.79;89.56;101334.25;4192922;28;20028;-73
2024/01/13 07:57:39;;;;;;;;;;;;;;;1.79;89.63;101342.25;4195363;28;20023;-74
2024/01/13 07:59:41;;;;;;;;;;;;;;;1.78;89.83;101327.22;4196409;28;20382;-73
2024/01/13 08:01:43;;;;;;;;;;;;;;;1.78;90.14;101325.41;4193982;28;20364;-75
2024/01/13 08:03:45;;;;;;;;;;;;;;;1.78;90.15;101332.53;4191155;28;20009;-74
2024/01/13 08:05:48;;;;;;;;;;;;;;;1.80;89.90;101325.28;4192982;28;20039;-74
2024/01/13 08:07:50;;;;;;;;;;;;;;;1.77;90.16;101326.38;4192008;28;20015;-74
2024/01/13 08:09:52;;;;;;;;;;;;;;;1.79;90.07;101319.13;4191955;28;20652;-74
2024/01/13 08:11:54;;;;;;;;;;;;;;;1.78;89.95;101312.06;4191703;28;20016;-74
2024/01/13 08:13:56;;;;;;;;;;;;;;;1.80;89.62;101318.16;4193208;28;20398;-74
2024/01/13 08:15:59;;;;;;;;;;;;;;;1.80;89.78;101322.63;4191582;28;20098;-75
2024/01/13 08:18:01;;;;;;;;;;;;;;;1.79;89.86;101318.28;4192689;28;20376;-74
2024/01/13 08:20:04;;;;;;;;;;;;;;;1.79;89.63;101313.78;4193393;28;20023;-74
2024/01/13 08:22:08;;;;;;;;;;;;;;;1.79;89.54;101300.47;4192677;28;20036;-74
2024/01/13 08:24:08;;;;;;;;;;;;;;;1.82;89.56;101303.88;4189984;28;20091;-74
2024/01/13 08:26:11;;;;;;;;;;;;;;;1.79;89.74;101295.16;4191085;28;20378;-74
2024/01/13 08:28:15;;;;;;;;;;;;;;;1.83;89.73;101297.59;4186791;28;20027;-74
2024/01/13 08:30:17;;;;;;;;;;;;;;;1.84;89.81;101299.31;4201824;28;19936;-74
2024/01/13 08:32:19;;;;;;;;;;;;;;;1.83;89.61;101298.44;4191125;28;20020;-74
2024/01/13 08:34:21;;;;;;;;;;;;;;;1.80;89.88;101294.19;4191087;28;20019;-74
2024/01/13 08:36:24;;;;;;;;;;;;;;;1.80;89.75;101294.19;4189212;28;20020;-73
2024/01/13 08:38:27;;;;;;;;;;;;;;;1.81;89.81;101295.03;4191138;28;20016;-74
2024/01/13 08:40:29;;;;;;;;;;;;;;;1.83;89.78;101294.94;4191920;28;19928;-74
2024/01/13 08:42:31;;;;;;;;;;;;;;;1.83;89.76;101289.59;4189875;28;19929;-74
2024/01/13 08:44:33;;;;;;;;;;;;;;;1.86;89.87;101298.22;4190954;28;19979;-75
2024/01/13 08:46:35;;;;;;;;;;;;;;;1.85;89.73;101285.91;4193299;28;19980;-74
2024/01/13 08:48:37;;;;;;;;;;;;;;;1.86;89.68;101294.72;4190800;28;20119;-74
2024/01/13 08:50:40;;;;;;;;;;;;;;;1.86;89.56;101292.91;4201701;28;20039;-73
2024/01/13 08:52:42;;;;;;;;;;;;;;;1.88;89.77;101288.34;4188646;28;19992;-74
2024/01/13 08:54:46;;;;;;;;;;;;;;;1.87;89.75;101289.28;4191306;28;19963;-74
2024/01/13 08:56:49;;;;;;;;;;;;;;;1.88;89.76;101284.81;4188334;28;20442;-74
2024/01/13 08:58:51;;;;;;;;;;;;;;;1.88;89.55;101279.47;4188428;28;20026;-74
2024/01/13 09:00:54;;;;;;;;;;;;;;;1.87;90.01;101286.63;4201537;28;20043;-74
2024/01/13 09:02:56;;;;;;;;;;;;;;;1.88;89.84;101276.81;4189333;28;19990;-74
2024/01/13 09:04:58;;;;;;;;;;;;;;;1.87;89.77;101280.47;4186561;28;20019;-74
2024/01/13 09:07:01;;;;;;;;;;;;;;;1.88;89.87;101272.38;4192683;28;20035;-74
2024/01/13 09:09:04;;;;;;;;;;;;;;;1.87;89.63;101281.31;4190471;28;20426;-74
2024/01/13 09:11:08;;;;;;;;;;;;;;;1.87;89.84;101275.13;4188579;28;20048;-74
2024/01/13 09:13:11;;;;;;;;;;;;;;;1.87;89.78;101264.47;4190741;28;20023;-74
2024/01/13 09:15:13;;;;;;;;;;;;;;;1.89;89.87;101255.41;4204456;28;19948;-74
2024/01/13 09:17:16;;;;;;;;;;;;;;;1.90;89.86;101245.63;4193107;28;19928;-73
2024/01/13 09:19:18;;;;;;;;;;;;;;;1.90;89.86;101245.63;4192236;28;20019;-73
2024/01/13 09:21:20;;;;;;;;;;;;;;;1.87;89.41;101225.38;4193915;28;20355;-73
2024/01/13 09:23:23;;;;;;;;;;;;;;;1.89;89.58;101226.09;4189460;28;19925;-74
2024/01/13 09:25:25;;;;;;;;;;;;;;;1.92;89.58;101222.38;4193162;28;20032;-73
2024/01/13 09:27:27;;;;;;;;;;;;;;;1.91;89.65;101223.31;4203344;28;19929;-74
2024/01/13 09:29:31;;;;;;;;;;;;;;;1.94;89.61;101221.31;4186868;28;19982;-74
2024/01/13 09:31:33;;;;;;;;;;;;;;;1.94;89.46;101220.44;4190270;28;20445;-73
2024/01/13 09:33:35;;;;;;;;;;;;;;;1.94;89.66;101226.66;4194129;28;20022;-74
2024/01/13 09:35:37;;;;;;;;;;;;;;;1.96;89.72;101230.03;4194174;28;20011;-74
2024/01/13 09:37:39;;;;;;;;;;;;;;;2.00;89.84;101230.66;4191859;28;20449;-73
2024/01/13 09:39:41;;;;;;;;;;;;;;;1.96;89.70;101232.72;4193606;28;20064;-73
2024/01/13 09:41:43;;;;;;;;;;;;;;;1.97;89.66;101222.88;4195535;28;19933;-74
2024/01/13 09:43:48;;;;;;;;;;;;;;;1.96;89.58;101226.53;4194615;28;20023;-74
2024/01/13 09:45:49;;;;;;;;;;;;;;;1.95;89.58;101216.81;4194779;28;20019;-74
2024/01/13 09:47:54;;;;;;;;;;;;;;;1.96;89.63;101203.41;4191211;28;19933;-74
2024/01/13 09:49:56;;;;;;;;;;;;;;;1.96;89.43;101206.06;4193744;28;20019;-74
2024/01/13 09:51:58;;;;;;;;;;;;;;;1.97;89.68;101204.25;4195076;28;20023;-73
2024/01/13 09:54:02;;;;;;;;;;;;;;;2.02;89.78;101209.25;4194465;28;20295;-73
2024/01/13 09:56:05;;;;;;;;;;;;;;;2.01;89.56;101212.84;4192832;28;20023;-74
2024/01/13 09:58:07;;;;;;;;;;;;;;;2.00;89.70;101225.34;4193190;28;19967;-73
2024/01/13 10:00:12;;;;;;;;;;;;;;;2.01;89.67;101205.72;4191987;28;20011;-72
2024/01/13 10:02:14;;;;;;;;;;;;;;;2.02;89.27;101204.75;4190638;28;19929;-74
2024/01/13 10:04:15;;;;;;;;;;;;;;;2.03;89.59;101194.97;4191761;28;20370;-73
2024/01/13 10:06:17;;;;;;;;;;;;;;;2.04;89.52;101183.31;4191327;28;19930;-74
2024/01/13 10:08:20;;;;;;;;;;;;;;;2.05;89.70;101183.22;4192106;28;20016;-74
2024/01/13 10:10:23;;;;;;;;;;;;;;;2.06;89.62;101190.25;4192601;28;20027;-73
2024/01/13 10:12:25;;;;;;;;;;;;;;;2.08;89.87;101193.66;4198911;28;20015;-73
2024/01/13 10:14:27;;;;;;;;;;;;;;;2.08;89.76;101191.00;4192423;28;20031;-73
2024/01/13 10:16:33;;;;;;;;;;;;;;;2.09;89.57;101194.53;4189961;28;20449;-70
2024/01/13 10:18:38;;;;;;;;;;;;;;;2.10;89.95;101185.56;4191612;28;20020;-71
2024/01/13 10:20:41;;;;;;;;;;;;;;;2.08;89.74;101176.81;4192211;28;20012;-72
2024/01/13 10:22:43;;;;;;;;;;;;;;;2.09;89.60;101198.03;4189989;28;19955;-72
2024/01/13 10:24:45;;;;;;;;;;;;;;;2.10;89.90;101190.88;4191757;28;20028;-73
2024/01/13 10:26:47;;;;;;;;;;;;;;;2.08;89.59;101185.66;4205747;28;20023;-72
2024/01/13 10:28:50;;;;;;;;;;;;;;;2.11;89.63;101180.09;4190943;28;20023;-74
2024/01/13 10:30:52;;;;;;;;;;;;;;;2.14;89.64;101171.91;4188468;28;20052;-74
2024/01/13 10:32:56;;;;;;;;;;;;;;;2.14;89.87;101171.91;4190888;28;20031;-74
2024/01/13 10:34:58;;;;;;;;;;;;;;;2.14;90.00;101168.38;4190883;28;20023;-71
2024/01/13 10:37:08;;;;;;;;;;;;;;;2.17;89.70;101181.50;4191523;28;20378;-74